Time;durP1;ratioP1;P1;durP2;ratioP2;P2;SDS_P1;SDS_P2;PMS_P1;PMS_P2;Temp;Humidity;BMP_temperature;BMP_pressure;BME280_temperature;BME280_humidity;BME280_pressure;Samples;Min_cycle;Max_cycle;Signal;HPM_P1;HPM_P2
2019/04/11 00:30:33;;;;;;;59.1;49.1;;;;;;;8.74;68.39648;956.308;;;;
2019/04/11 00:32:58;;;;;;;43.9;35.3;;;;;;;8.64;68.32129;956.2473;;;;
2019/04/11 00:35:24;;;;;;;41.8;33.4;;;;;;;8.75;66.79297;956.2985;;;;
2019/04/11 00:37:50;;;;;;;42.4;33.2;;;;;;;8.58;68.1416;956.2695;;;;
2019/04/11 00:40:15;;;;;;;41.5;33;;;;;;;8.59;67.05273;956.382;;;;
2019/04/11 00:42:40;;;;;;;39.4;33.3;;;;;;;8.37;68.78418;956.4036;;;;
2019/04/11 00:45:05;;;;;;;39.9;31.3;;;;;;;8.52;67.78809;956.3787;;;;
2019/04/11 00:47:30;;;;;;;37.3;30.8;;;;;;;8.48;66.80859;956.382;;;;
2019/04/11 00:49:55;;;;;;;36.2;29.5;;;;;;;8.45;66.27734;956.4147;;;;
2019/04/11 00:52:21;;;;;;;38.6;29.8;;;;;;;8.41;66.82031;956.4358;;;;
2019/04/11 00:54:46;;;;;;;38.7;29.9;;;;;;;8.15;67.68457;956.4092;;;;
2019/04/11 00:57:11;;;;;;;39.4;29.8;;;;;;;8.2;66.90234;956.4048;;;;
2019/04/11 00:59:36;;;;;;;35.7;28.7;;;;;;;8.08;68.38379;956.3801;;;;
2019/04/11 01:02:01;;;;;;;34.1;27.4;;;;;;;8.21;66.45801;956.4561;;;;
2019/04/11 01:04:26;;;;;;;36.3;28.2;;;;;;;8.21;69.04492;956.452;;;;
2019/04/11 01:06:51;;;;;;;33.5;26.5;;;;;;;8.27;65.87109;956.4899;;;;
2019/04/11 01:09:16;;;;;;;30.9;25;;;;;;;8.26;65.46875;956.5133;;;;
2019/04/11 01:11:41;;;;;;;33.2;25.2;;;;;;;8.17;67.10352;956.555;;;;
2019/04/11 01:14:07;;;;;;;32.1;23.9;;;;;;;8.22;65.48633;956.5284;;;;
2019/04/11 01:16:37;;;;;;;28.9;23;;;;;;;8.32;63.71484;956.4952;;;;
2019/04/11 01:18:57;;;;;;;30.6;21;;;;;;;8.1;62.90332;956.5305;;;;
2019/04/11 03:26:27;;;;;;;27.3;19.9;;;;;;;6.73;63.77637;957.3345;;;;
2019/04/11 03:28:52;;;;;;;24.1;17;;;;;;;6.69;64.54395;957.3811;;;;
2019/04/11 03:31:17;;;;;;;22;16.2;;;;;;;6.8;62.77051;957.3942;;;;
2019/04/11 03:33:42;;;;;;;22.2;16.5;;;;;;;6.79;62.42578;957.3864;;;;
2019/04/11 03:36:07;;;;;;;22;16.6;;;;;;;6.75;63.35742;957.3758;;;;
2019/04/11 03:38:33;;;;;;;24.2;16.5;;;;;;;6.74;63.90234;957.3859;;;;
2019/04/11 03:40:58;;;;;;;24.1;16.4;;;;;;;6.93;61.51074;957.4449;;;;
2019/04/11 03:43:23;;;;;;;22.9;15.9;;;;;;;6.89;62.23633;957.4261;;;;
2019/04/11 03:45:48;;;;;;;22;16.5;;;;;;;6.82;63.04688;957.4141;;;;
2019/04/11 03:48:13;;;;;;;23;17;;;;;;;6.8;62.54297;957.4679;;;;
2019/04/11 03:50:47;;;;;;;22.1;16.7;;;;;;;6.8;62.07617;957.502;;;;
2019/04/11 03:53:13;;;;;;;23.1;16.3;;;;;;;6.75;62.53613;957.4794;;;;
2019/04/11 03:55:38;;;;;;;23.7;17;;;;;;;6.73;62.17969;957.5374;;;;
2019/04/11 03:58:05;;;;;;;23.2;17.3;;;;;;;6.5;62.62402;957.5204;;;;
2019/04/11 04:02:27;;;;;;;24.2;17.4;;;;;;;6.43;63.74316;957.5511;;;;
2019/04/11 04:04:53;;;;;;;21.9;17.2;;;;;;;6.48;63.89746;957.6297;;;;
2019/04/11 04:07:18;;;;;;;24.9;17.6;;;;;;;6.55;62.80273;957.59;;;;
2019/04/11 04:09:43;;;;;;;23.8;18;;;;;;;6.51;63.76758;957.6097;;;;
2019/04/11 04:12:08;;;;;;;25.6;17.9;;;;;;;6.52;65.04492;957.6094;;;;
2019/04/11 04:17:06;;;;;;;26.1;18.9;;;;;;;6.27;63.50391;957.6879;;;;
2019/04/11 04:19:37;;;;;;;25.4;17.8;;;;;;;6.4;61.82227;957.683;;;;
2019/04/11 04:21:54;;;;;;;24.1;18.1;;;;;;;6.36;63.13965;957.6947;;;;
2019/04/11 04:24:28;;;;;;;23.8;18;;;;;;;6.34;63.10254;957.7175;;;;
2019/04/11 04:26:39;;;;;;;25;17.9;;;;;;;6.17;63.39648;957.6653;;;;
2019/04/11 04:29:05;;;;;;;26.2;18.4;;;;;;;6.32;62.67676;957.78;;;;
2019/04/11 04:31:30;;;;;;;23.8;17.7;;;;;;;6.32;62.1084;957.7494;;;;
2019/04/11 04:33:55;;;;;;;23.7;18;;;;;;;6.35;61.16797;957.7642;;;;
2019/04/11 04:36:20;;;;;;;22.2;17.4;;;;;;;6.28;62.0127;957.8041;;;;
2019/04/11 04:38:45;;;;;;;26.3;18.3;;;;;;;6.12;62.99121;957.8715;;;;
2019/04/11 04:41:10;;;;;;;23.8;17.9;;;;;;;6.14;62.44727;957.8398;;;;
2019/04/11 04:43:35;;;;;;;25.7;18.2;;;;;;;6.01;64.38477;957.8627;;;;
2019/04/11 04:46:01;;;;;;;25.3;18.2;;;;;;;6.06;63.19727;957.8589;;;;
2019/04/11 04:48:26;;;;;;;24;17.9;;;;;;;6.05;64.71191;957.8812;;;;
2019/04/11 04:50:51;;;;;;;26.3;18.6;;;;;;;5.98;65.61035;957.9166;;;;
2019/04/11 04:53:16;;;;;;;24.5;18.1;;;;;;;5.93;64.16895;957.8725;;;;
2019/04/11 04:55:41;;;;;;;28;18.3;;;;;;;6.02;64.0918;957.8794;;;;
2019/04/11 04:58:06;;;;;;;24.9;18.2;;;;;;;6.1;64.08105;957.9166;;;;
2019/04/11 05:00:31;;;;;;;25.3;18.7;;;;;;;5.96;63.02344;957.9485;;;;
2019/04/11 05:02:56;;;;;;;24.2;18.5;;;;;;;6.07;62.83496;957.9659;;;;
2019/04/11 05:05:21;;;;;;;27.1;18.5;;;;;;;5.99;65.4082;958.0022;;;;
2019/04/11 05:07:46;;;;;;;27.2;18.9;;;;;;;6.15;63.73535;958.0204;;;;
2019/04/11 05:10:12;;;;;;;24.2;17.5;;;;;;;6.17;61.3584;958.0189;;;;
2019/04/11 05:12:37;;;;;;;24;17.9;;;;;;;6.11;62.37402;958.0369;;;;
2019/04/11 05:15:02;;;;;;;26.3;18.1;;;;;;;6.2;61.78418;958.0514;;;;
2019/04/11 05:17:28;;;;;;;24.8;17.9;;;;;;;6.26;61.49609;958.1334;;;;
2019/04/11 05:19:53;;;;;;;25.5;18.4;;;;;;;6.26;61.76953;958.1245;;;;
2019/04/11 05:22:18;;;;;;;24.5;18.3;;;;;;;6.22;62.54883;958.1107;;;;
2019/04/11 05:24:43;;;;;;;23.2;17.7;;;;;;;6.11;61.75879;958.1964;;;;
2019/04/11 05:27:08;;;;;;;27.2;18.5;;;;;;;6.11;63.20508;958.1792;;;;
2019/04/11 05:29:33;;;;;;;23.7;17.4;;;;;;;6.23;61.24023;958.1275;;;;
2019/04/11 05:31:59;;;;;;;25.9;17.9;;;;;;;6.15;61.78906;958.1022;;;;
2019/04/11 05:34:24;;;;;;;25.4;17.7;;;;;;;6.21;64.48438;958.1501;;;;
2019/04/11 05:36:50;;;;;;;24.5;17.9;;;;;;;6.23;61.36621;958.1746;;;;
2019/04/11 05:39:15;;;;;;;25.4;17.4;;;;;;;6.03;63.31836;958.2234;;;;
2019/04/11 05:41:40;;;;;;;23.9;18;;;;;;;6.01;62.40527;958.2291;;;;
2019/04/11 05:44:05;;;;;;;25.6;17.7;;;;;;;6.02;62.39453;958.22;;;;
2019/04/11 05:46:30;;;;;;;25.2;18.3;;;;;;;5.96;63.99219;958.2844;;;;
2019/04/11 05:49:55;;;;;;;23.2;17.8;;;;;;;6.05;63.19727;958.2136;;;;
2019/04/11 05:51:20;;;;;;;23.2;18;;;;;;;5.97;64.41406;958.2108;;;;
2019/04/11 05:53:45;;;;;;;26.1;17.6;;;;;;;5.97;63.00293;958.1713;;;;
2019/04/11 05:56:10;;;;;;;24.6;18.1;;;;;;;5.94;63.62402;958.2042;;;;
2019/04/11 05:58:35;;;;;;;24.2;18.4;;;;;;;5.89;67.94336;958.2545;;;;
2019/04/11 06:01:08;;;;;;;25.3;18.1;;;;;;;6.05;63.66406;958.183;;;;
2019/04/11 06:03:26;;;;;;;26.7;18.6;;;;;;;5.97;63.64063;958.1672;;;;
2019/04/11 06:05:59;;;;;;;26.2;18;;;;;;;5.97;63.64063;958.1501;;;;
2019/04/11 06:08:17;;;;;;;25.6;19.6;;;;;;;5.89;66.15723;958.1725;;;;
2019/04/11 06:13:17;;;;;;;26.6;18.9;;;;;;;5.75;65.46094;958.2175;;;;
2019/04/11 06:15:35;;;;;;;25.3;18.7;;;;;;;5.64;65.60547;958.2291;;;;
2019/04/11 06:17:56;;;;;;;25;19;;;;;;;5.72;65.94727;958.2449;;;;
2019/04/11 06:20:42;;;;;;;26.1;19.4;;;;;;;5.64;67.30078;958.2161;;;;
2019/04/11 06:22:54;;;;;;;29.1;20;;;;;;;5.58;69.23633;958.255;;;;
2019/04/11 06:28:02;;;;;;;27.5;19.5;;;;;;;5.82;67.65918;958.2725;;;;
2019/04/11 06:30:26;;;;;;;28.4;20.5;;;;;;;5.88;67.28223;958.2941;;;;
2019/04/11 06:34:58;;;;;;;26.9;19.8;;;;;;;6.01;65.45703;958.3844;;;;
2019/04/11 06:40:07;;;;;;;25.2;19.1;;;;;;;6.02;65.36816;958.2888;;;;
2019/04/11 06:42:18;;;;;;;24;18;;;;;;;6.03;63.89941;958.3617;;;;
2019/04/11 06:50:37;;;;;;;23.8;17.4;;;;;;;6.15;63.26855;958.4264;;;;
2019/04/11 06:52:58;;;;;;;24.2;17.9;;;;;;;6.14;63.46094;958.4741;;;;
2019/04/11 06:57:49;;;;;;;26.4;18.5;;;;;;;6.56;62.0293;958.4653;;;;
2019/04/11 07:00:14;;;;;;;28;19;;;;;;;6.46;62.54004;958.4727;;;;
2019/04/11 07:02:42;;;;;;;27.7;19.6;;;;;;;6.56;63.77441;958.5131;;;;
2019/04/11 07:05:05;;;;;;;25.6;19.7;;;;;;;6.44;64.09863;958.5909;;;;
2019/04/11 07:07:31;;;;;;;25.9;19;;;;;;;6.44;63.9043;958.509;;;;
2019/04/11 07:09:57;;;;;;;26.6;19.3;;;;;;;6.58;63.46875;958.5374;;;;
2019/04/11 07:12:30;;;;;;;27.8;19;;;;;;;6.76;62.84375;958.507;;;;
2019/04/11 07:14:50;;;;;;;25.5;18.6;;;;;;;6.87;61.0127;958.5034;;;;
2019/04/11 07:20:01;;;;;;;27.8;19.4;;;;;;;6.93;61.56934;958.5936;;;;
2019/04/11 07:22:01;;;;;;;25.5;18.5;;;;;;;6.85;61.99219;958.4958;;;;
2019/04/11 07:24:37;;;;;;;25.2;18.9;;;;;;;6.91;61.41699;958.5393;;;;
2019/04/11 07:26:56;;;;;;;26.3;19.1;;;;;;;6.78;61.45605;958.579;;;;
2019/04/11 07:31:50;;;;;;;26.8;19.7;;;;;;;6.76;61.97754;958.6107;;;;
2019/04/11 07:39:01;;;;;;;27.7;19.2;;;;;;;6.77;61.34082;958.7134;;;;
2019/04/11 07:42:03;;;;;;;29.1;18.9;;;;;;;6.65;61.3125;958.6577;;;;
2019/04/11 07:43:47;;;;;;;27.8;19.4;;;;;;;6.69;64.13672;958.7148;;;;
2019/04/11 07:46:35;;;;;;;26.8;19.4;;;;;;;6.67;62.28516;958.7427;;;;
2019/04/11 07:48:41;;;;;;;25.6;19.6;;;;;;;6.82;61.53125;958.7142;;;;
2019/04/11 07:51:47;;;;;;;27.6;20;;;;;;;6.7;62.59766;958.7274;;;;
2019/04/11 07:53:27;;;;;;;26.8;20;;;;;;;6.68;62.47949;958.772;;;;
2019/04/11 07:55:54;;;;;;;29;19.9;;;;;;;6.62;63.25781;958.8024;;;;
2019/04/11 07:58:42;;;;;;;30.1;19.8;;;;;;;6.66;62.90918;958.8472;;;;
2019/04/11 08:01:37;;;;;;;28;19.4;;;;;;;6.79;61.62891;958.9109;;;;
2019/04/11 08:03:27;;;;;;;25.9;19.4;;;;;;;6.69;61.84277;958.875;;;;
2019/04/11 08:12:25;;;;;;;28.2;19.7;;;;;;;6.75;62.46777;958.8964;;;;
2019/04/11 08:17:18;;;;;;;27.9;20.5;;;;;;;7.04;62.06445;959.0094;;;;
2019/04/11 08:22:17;;;;;;;29.3;20.1;;;;;;;7.16;60.89453;959.0644;;;;
2019/04/11 08:24:37;;;;;;;27.8;20;;;;;;;7.22;60.58301;959.0392;;;;
2019/04/11 08:29:20;;;;;;;30.1;21.1;;;;;;;7.16;62.05957;959.0562;;;;
2019/04/11 08:38:35;;;;;;;23.5;19.3;;;;;;;6.96;61.66602;959.0231;;;;
2019/04/11 08:43:26;;;;;;;28.1;20.5;;;;;;;7.09;63.7959;959.1177;;;;
2019/04/11 08:45:53;;;;;;;27.7;20.9;;;;;;;7.25;62.89355;959.1926;;;;
2019/04/11 08:48:15;;;;;;;29.2;20.8;;;;;;;7.27;61.29883;959.182;;;;
2019/04/11 08:50:42;;;;;;;27.6;20.6;;;;;;;7.32;62.73438;959.2774;;;;
2019/04/11 08:56:06;;;;;;;30.1;21;;;;;;;7.52;60.5;959.1328;;;;
2019/04/11 09:00:58;;;;;;;36;22;;;;;;;7.5;61.06836;959.1686;;;;
2019/04/11 09:03:30;;;;;;;27.6;21.7;;;;;;;7.65;61.29492;959.1794;;;;
2019/04/11 09:08:33;;;;;;;31.7;21.3;;;;;;;7.68;60.42969;959.1859;;;;
2019/04/11 09:11:03;;;;;;;30;21.9;;;;;;;7.91;59.14648;959.1814;;;;
2019/04/11 09:13:11;;;;;;;29.9;22.1;;;;;;;7.83;60.39453;959.1653;;;;
2019/04/11 09:17:56;;;;;;;42.8;26.5;;;;;;;7.95;60.08008;959.2206;;;;
2019/04/11 09:22:55;;;;;;;29;22.2;;;;;;;7.91;60.75879;959.2203;;;;
2019/04/11 09:25:39;;;;;;;30;22.6;;;;;;;7.91;61.20508;959.324;;;;
2019/04/11 09:30:02;;;;;;;30.5;22.3;;;;;;;7.7;62.0791;959.3359;;;;
2019/04/11 09:32:43;;;;;;;31.5;21.7;;;;;;;7.8;61.6709;959.3016;;;;
2019/04/11 09:34:55;;;;;;;33.7;22.6;;;;;;;7.43;62.52148;959.3903;;;;
2019/04/11 09:37:19;;;;;;;30.6;22.4;;;;;;;7.52;62.05273;959.397;;;;
2019/04/11 09:44:29;;;;;;;32.4;22.3;;;;;;;7.79;60.58398;959.3329;;;;
2019/04/11 09:47:17;;;;;;;30.4;22.2;;;;;;;7.87;59.87402;959.4051;;;;
2019/04/11 09:49:26;;;;;;;30.2;22.5;;;;;;;7.8;60.18457;959.3582;;;;
2019/04/11 09:52:01;;;;;;;30.5;23.3;;;;;;;7.53;62.18164;959.4476;;;;
2019/04/11 09:54:13;;;;;;;32;22.7;;;;;;;7.51;61.62988;959.4796;;;;
2019/04/11 09:59:03;;;;;;;30.5;22.7;;;;;;;7.59;63.45898;959.4258;;;;
2019/04/11 10:03:50;;;;;;;32;24.5;;;;;;;8;62.13574;959.3641;;;;
2019/04/11 10:08:43;;;;;;;33.2;23.9;;;;;;;8.06;60.38086;959.4592;;;;
2019/04/11 10:13:49;;;;;;;33.6;23.5;;;;;;;8.16;60.45313;959.4514;;;;
2019/04/11 10:18:38;;;;;;;32.6;23.2;;;;;;;8.33;59.10352;959.4464;;;;
2019/04/11 10:20:47;;;;;;;31.8;22.9;;;;;;;8.22;60.12793;959.5073;;;;
2019/04/11 10:23:23;;;;;;;32.2;23.3;;;;;;;8.1;59.71094;959.5471;;;;
2019/04/11 10:25:41;;;;;;;31.8;23.5;;;;;;;8.01;60.18066;959.4626;;;;
2019/04/11 10:32:55;;;;;;;32.2;23.8;;;;;;;7.83;61.77832;959.5287;;;;
2019/04/11 10:35:35;;;;;;;34.2;24.2;;;;;;;7.83;61.92773;959.5588;;;;
2019/04/11 10:37:44;;;;;;;30.5;23.6;;;;;;;7.73;61.62793;959.5405;;;;
2019/04/11 10:40:29;;;;;;;31.8;24.5;;;;;;;7.84;61.39063;959.5628;;;;
2019/04/11 10:42:34;;;;;;;33.3;24.3;;;;;;;7.87;62.30078;959.5991;;;;
2019/04/11 10:48:04;;;;;;;31;25;;;;;;;7.83;61.28613;959.5505;;;;
2019/04/11 10:50:57;;;;;;;34.4;25.6;;;;;;;7.63;63.33984;959.678;;;;
2019/04/11 10:52:59;;;;;;;34.8;24.3;;;;;;;7.82;62.77246;959.7199;;;;
2019/04/11 10:55:22;;;;;;;33.8;24.3;;;;;;;7.99;62.16699;959.5944;;;;
2019/04/11 10:57:45;;;;;;;35.7;25.7;;;;;;;8.12;64.50879;959.6539;;;;
2019/04/11 11:00:12;;;;;;;35.9;25.6;;;;;;;8.48;62.64941;959.6131;;;;
2019/04/11 11:03:05;;;;;;;33.7;24.4;;;;;;;8.63;60.41602;959.6358;;;;
2019/04/11 11:04:58;;;;;;;34.1;25.4;;;;;;;8.76;60.08984;959.6212;;;;
2019/04/11 11:07:25;;;;;;;32.5;25;;;;;;;9.06;60.08496;959.6401;;;;
2019/04/11 11:09:53;;;;;;;33.2;25;;;;;;;9.16;58.38965;959.6973;;;;
2019/04/11 11:12:26;;;;;;;35;24.4;;;;;;;9.36;59.7373;959.6459;;;;
2019/04/11 11:17:21;;;;;;;31.9;24.6;;;;;;;9.77;56.32422;959.7164;;;;
2019/04/11 11:22:02;;;;;;;36.7;27.6;;;;;;;9.69;56.24707;959.653;;;;
2019/04/11 11:24:51;;;;;;;46.6;32.8;;;;;;;9.83;56.16113;959.7064;;;;
2019/04/11 11:26:44;;;;;;;32.5;24.4;;;;;;;9.92;54.89551;959.6602;;;;
2019/04/11 11:38:25;;;;;;;33.7;24.2;;;;;;;10.08;54.74414;959.7245;;;;
2019/04/11 11:43:31;;;;;;;34.3;25.4;;;;;;;9.73;57.7207;959.793;;;;
2019/04/11 11:46:02;;;;;;;38.7;28.2;;;;;;;9.74;56.20508;959.7881;;;;
2019/04/11 11:48:10;;;;;;;33.6;26.3;;;;;;;9.73;55.76758;959.832;;;;
2019/04/11 11:50:31;;;;;;;37;26.7;;;;;;;9.6;56.96875;959.8254;;;;
2019/04/11 11:53:09;;;;;;;31.7;25.1;;;;;;;9.83;55.45996;959.8064;;;;
2019/04/11 11:55:23;;;;;;;34.1;25.5;;;;;;;9.75;55.44922;959.8391;;;;
2019/04/11 12:01:20;;;;;;;34.2;26.2;;;;;;;9.98;57.70898;959.7805;;;;
2019/04/11 12:05:19;;;;;;;34.3;25.5;;;;;;;10.33;56.26074;959.8508;;;;
2019/04/11 12:06:10;;;;;;;33.8;27;;;;;;;10.42;56.43262;959.8828;;;;
2019/04/11 12:11:02;;;;;;;34;27.2;;;;;;;10.43;54.375;959.8422;;;;
2019/04/11 12:13:57;;;;;;;35.2;26.9;;;;;;;10.68;53.3125;959.8122;;;;
2019/04/11 12:16:02;;;;;;;33.9;27.3;;;;;;;10.81;55.69922;959.7924;;;;
2019/04/11 12:18:28;;;;;;;37.5;27.3;;;;;;;11.54;53.45313;959.8439;;;;
2019/04/11 12:20:44;;;;;;;32.8;26.1;;;;;;;11.92;52.94531;959.8442;;;;
2019/04/11 12:23:13;;;;;;;33.7;27.3;;;;;;;12.13;51.12305;959.7769;;;;
2019/04/11 12:25:37;;;;;;;39.2;27.5;;;;;;;12.25;50.40918;959.7744;;;;
2019/04/11 12:28:07;;;;;;;33;26.7;;;;;;;12.98;47.93652;959.7751;;;;
2019/04/11 12:30:30;;;;;;;33.8;25.9;;;;;;;12.73;48.20898;959.7335;;;;
2019/04/11 12:33:14;;;;;;;37.1;27.4;;;;;;;12.16;50.0293;959.7438;;;;
2019/04/11 12:35:28;;;;;;;35.7;28.2;;;;;;;11.49;53.50488;959.7707;;;;
2019/04/11 12:37:42;;;;;;;34.6;28.2;;;;;;;11.17;52.81934;959.7516;;;;
2019/04/11 12:40:26;;;;;;;35.2;27.4;;;;;;;11.16;53.12891;959.7825;;;;
2019/04/11 12:42:30;;;;;;;36;27.4;;;;;;;10.78;53.64746;959.7381;;;;
2019/04/11 12:47:41;;;;;;;35.1;29.1;;;;;;;10.63;55.82715;959.6603;;;;
2019/04/11 12:54:33;;;;;;;36.6;28.8;;;;;;;10.78;57.25195;959.7381;;;;
2019/04/11 12:58:02;;;;;;;37.1;29.7;;;;;;;10.93;56.25684;959.7645;;;;
2019/04/11 12:59:26;;;;;;;37.2;30.3;;;;;;;10.63;55.87305;959.6905;;;;
2019/04/11 13:02:12;;;;;;;40.8;32;;;;;;;10.58;58.09863;959.6951;;;;
2019/04/11 13:04:20;;;;;;;45.1;32;;;;;;;10.78;55.9043;959.699;;;;
2019/04/11 13:06:52;;;;;;;39.8;29.7;;;;;;;11.17;53.81055;959.7556;;;;
2019/04/11 13:09:15;;;;;;;37.2;29;;;;;;;11.44;53.1748;959.7927;;;;
2019/04/11 13:11:29;;;;;;;44.4;29.2;;;;;;;11.76;53.19141;959.7283;;;;
2019/04/11 13:14:37;;;;;;;37.2;29.1;;;;;;;11.96;51.71582;959.7623;;;;
2019/04/11 13:16:19;;;;;;;37.6;29;;;;;;;12.03;51.72363;959.7341;;;;
2019/04/11 13:21:22;;;;;;;42.1;31.7;;;;;;;12.78;49.76563;959.6891;;;;
2019/04/11 13:28:26;;;;;;;37.5;30;;;;;;;13.48;47.35449;959.5991;;;;
2019/04/11 13:33:21;;;;;;;38.8;29.5;;;;;;;15.18;46.42188;959.6318;;;;
2019/04/11 13:38:11;;;;;;;40.4;30.8;;;;;;;15.43;44.49316;959.6885;;;;
2019/04/11 13:41:03;;;;;;;41.1;31.9;;;;;;;14.75;44.87793;959.5851;;;;
2019/04/11 13:43:21;;;;;;;41.5;31.7;;;;;;;13.9;46.53027;959.6447;;;;
2019/04/11 13:45:22;;;;;;;39.2;31.4;;;;;;;13.42;47.59082;959.6192;;;;
2019/04/11 13:48:33;;;;;;;36.2;30.4;;;;;;;13.2;47.42871;959.6049;;;;
2019/04/11 13:50:13;;;;;;;40.2;31.9;;;;;;;12.85;48.69727;959.635;;;;
2019/04/11 13:52:52;;;;;;;41.2;33.3;;;;;;;12.87;51.22168;959.5895;;;;
2019/04/11 13:55:07;;;;;;;40.9;31.4;;;;;;;12.98;50.08984;959.6002;;;;
2019/04/11 14:02:25;;;;;;;43.4;32.3;;;;;;;12.2;50.98145;959.5613;;;;
2019/04/11 14:04:46;;;;;;;41.2;32.6;;;;;;;11.99;53.93555;959.6467;;;;
2019/04/11 14:07:11;;;;;;;41.9;32.6;;;;;;;12.49;50.87598;959.5648;;;;
2019/04/11 14:09:38;;;;;;;41.2;32.4;;;;;;;12.81;49.0166;959.6125;;;;
2019/04/11 14:12:00;;;;;;;46.3;32.7;;;;;;;12.88;49.97363;959.5355;;;;
2019/04/11 14:14:32;;;;;;;41.6;33;;;;;;;12.85;49.68066;959.5302;;;;
2019/04/11 14:17:12;;;;;;;41.3;32.6;;;;;;;12.87;48.24805;959.502;;;;
2019/04/11 14:19:31;;;;;;;44.5;32.8;;;;;;;12.46;50.6416;959.5547;;;;
2019/04/11 14:21:40;;;;;;;42.5;32.3;;;;;;;12.47;53.29004;959.6184;;;;
2019/04/11 14:24:26;;;;;;;41.3;32.5;;;;;;;12.34;51.5166;959.5834;;;;
2019/04/11 14:26:33;;;;;;;42.3;32.6;;;;;;;12.31;50.71777;959.5201;;;;
2019/04/11 14:29:18;;;;;;;43.3;32.2;;;;;;;12.44;49.55273;959.5739;;;;
2019/04/11 14:38:11;;;;;;;42.4;33.2;;;;;;;12.46;50.58398;959.5457;;;;
2019/04/11 14:48:21;;;;;;;42.8;35.2;;;;;;;12.68;49.22168;959.568;;;;
2019/04/11 14:50:47;;;;;;;45.9;35.1;;;;;;;12.53;49.20605;959.5213;;;;
2019/04/11 14:53:29;;;;;;;45.4;34.6;;;;;;;12.3;51.0166;959.6044;;;;
2019/04/11 14:55:24;;;;;;;46.6;35;;;;;;;12.36;49.58984;959.5862;;;;
2019/04/11 14:58:09;;;;;;;44.5;35.5;;;;;;;12.27;49.97363;959.5721;;;;
2019/04/11 15:00:39;;;;;;;46.4;35.9;;;;;;;12.18;50.77051;959.5808;;;;
2019/04/11 15:03:03;;;;;;;46;35.6;;;;;;;11.74;52.03516;959.5776;;;;
2019/04/11 15:13:51;;;;;;;46.9;35.6;;;;;;;12.22;50.56836;959.6376;;;;
2019/04/11 15:16:39;;;;;;;46.1;36;;;;;;;12.21;50.4043;959.6;;;;
2019/04/11 15:18:45;;;;;;;44.3;35.2;;;;;;;12.22;50.70605;959.5641;;;;
2019/04/11 15:21:18;;;;;;;43.3;35;;;;;;;12.39;49.33887;959.6398;;;;
2019/04/11 15:23:32;;;;;;;47;36.1;;;;;;;12.37;48.68945;959.5887;;;;
2019/04/11 15:29:16;;;;;;;49.1;36.5;;;;;;;12.07;51.82031;959.696;;;;
2019/04/11 15:36:38;;;;;;;43.8;34.8;;;;;;;12.06;51.92285;959.6797;;;;
2019/04/11 15:39:29;;;;;;;45.4;34.4;;;;;;;12.21;49.1582;959.6605;;;;
2019/04/11 15:41:29;;;;;;;46.6;34.3;;;;;;;12.1;50.06836;959.6923;;;;
2019/04/11 15:44:16;;;;;;;47;34;;;;;;;11.96;48.62012;959.7321;;;;
2019/04/11 15:46:22;;;;;;;49.2;35.7;;;;;;;11.87;49.09473;959.7014;;;;
2019/04/11 15:49:43;;;;;;;40.4;32.6;;;;;;;11.8;50.51953;959.7026;;;;
2019/04/11 16:00:07;;;;;;;44.2;33.5;;;;;;;11.62;51.95117;959.7285;;;;
2019/04/11 16:04:45;;;;;;;44.2;33.1;;;;;;;11.71;50.13965;959.7283;;;;
2019/04/11 16:07:26;;;;;;;41.8;33.1;;;;;;;11.67;49.34961;959.6323;;;;
2019/04/11 16:09:19;;;;;;;43.9;33;;;;;;;11.57;50.52637;959.6763;;;;
2019/04/11 16:11:53;;;;;;;41;33;;;;;;;11.51;51.15234;959.6948;;;;
2019/04/11 16:14:17;;;;;;;40.6;31.9;;;;;;;11.72;48.69824;959.7405;;;;
2019/04/11 16:16:43;;;;;;;40.8;31.5;;;;;;;11.76;48.40234;959.707;;;;
2019/04/11 16:19:21;;;;;;;39.1;31.1;;;;;;;11.62;49.54004;959.7367;;;;
2019/04/11 16:21:32;;;;;;;39.2;31.3;;;;;;;11.43;49.2998;959.7233;;;;
2019/04/11 16:24:11;;;;;;;36.8;29.9;;;;;;;11.48;50.07715;959.741;;;;
2019/04/11 16:26:19;;;;;;;39.2;30.6;;;;;;;11.35;50.82324;959.7178;;;;
2019/04/11 16:31:05;;;;;;;39.8;31.2;;;;;;;11.25;50.61719;959.7701;;;;
2019/04/11 16:36:03;;;;;;;40.9;30.4;;;;;;;11.16;50.69727;959.7569;;;;
2019/04/11 16:38:21;;;;;;;38.8;29.8;;;;;;;11.16;50.54785;959.7262;;;;
2019/04/11 16:41:20;;;;;;;40.6;30.2;;;;;;;10.97;50.82617;959.7773;;;;
2019/04/11 16:43:10;;;;;;;36.6;29.1;;;;;;;10.97;50.73438;959.8035;;;;
2019/04/11 16:45:59;;;;;;;39.4;29.7;;;;;;;10.85;51.24805;959.8192;;;;
2019/04/11 16:50:25;;;;;;;38.1;30;;;;;;;10.81;51.49609;959.7794;;;;
2019/04/11 16:52:51;;;;;;;36.8;28.6;;;;;;;10.83;50.40527;959.8337;;;;
2019/04/11 16:55:16;;;;;;;39.1;29.1;;;;;;;10.69;50.6543;959.7723;;;;
2019/04/11 16:57:41;;;;;;;37.9;28.3;;;;;;;10.61;51.02539;959.9141;;;;
2019/04/11 17:00:06;;;;;;;39.6;29.6;;;;;;;10.63;50.15332;959.9073;;;;
2019/04/11 17:02:31;;;;;;;36.3;28.7;;;;;;;10.71;50.15039;959.8486;;;;
2019/04/11 17:04:56;;;;;;;36.4;28.9;;;;;;;10.57;50.73242;959.9086;;;;
2019/04/11 17:07:38;;;;;;;40.1;29.5;;;;;;;10.57;50.45605;959.9175;;;;
2019/04/11 17:09:47;;;;;;;37.4;28.8;;;;;;;10.59;50.40039;959.9506;;;;
2019/04/11 17:12:11;;;;;;;34.8;27.4;;;;;;;10.44;51.29102;959.9286;;;;
2019/04/11 17:14:37;;;;;;;36.2;28.3;;;;;;;10.53;49.50781;959.9511;;;;
2019/04/11 17:17:02;;;;;;;37.2;28.5;;;;;;;10.43;49.89941;959.9334;;;;
2019/04/11 17:19:27;;;;;;;38.1;28.1;;;;;;;10.32;51.27734;959.9913;;;;
2019/04/11 17:21:52;;;;;;;36;28.9;;;;;;;10.34;51.0957;959.9763;;;;
2019/04/11 17:24:17;;;;;;;35.9;28.4;;;;;;;10.36;50.97168;959.9793;;;;
2019/04/11 17:26:42;;;;;;;34.8;28.4;;;;;;;10.31;50.98828;959.988;;;;
2019/04/11 17:29:07;;;;;;;37.6;28.8;;;;;;;10.27;52.41113;960.0776;;;;
2019/04/11 17:31:33;;;;;;;35.7;28.9;;;;;;;10.19;51.94141;960.0062;;;;
2019/04/11 17:33:58;;;;;;;35.2;27;;;;;;;10.24;51.85547;960.1142;;;;
2019/04/11 17:36:23;;;;;;;37.5;28.4;;;;;;;10.18;52.35449;960.1064;;;;
2019/04/11 17:38:48;;;;;;;35.9;28.3;;;;;;;10.18;51.44531;960.0934;;;;
2019/04/11 17:41:13;;;;;;;36.9;28.4;;;;;;;10.18;51.15723;960.0461;;;;
2019/04/11 17:43:38;;;;;;;35.7;28.2;;;;;;;10.09;51.68652;960.1541;;;;
2019/04/11 17:46:03;;;;;;;37.1;27.6;;;;;;;9.98;52.71973;960.1849;;;;
2019/04/11 17:48:29;;;;;;;35.1;27.3;;;;;;;9.87;53.48828;960.1763;;;;
2019/04/11 17:50:54;;;;;;;35.1;27.2;;;;;;;10.04;52.12988;960.24;;;;
2019/04/11 17:53:19;;;;;;;36.6;28.6;;;;;;;9.99;53.2041;960.2405;;;;
2019/04/11 17:55:44;;;;;;;36.1;27.7;;;;;;;9.83;53.88574;960.2444;;;;
2019/04/11 17:58:09;;;;;;;38;29.2;;;;;;;9.67;54.2666;960.2195;;;;
2019/04/11 18:00:37;;;;;;;36.6;27.9;;;;;;;9.61;54.67285;960.315;;;;
2019/04/11 18:02:59;;;;;;;39.2;30.1;;;;;;;9.55;54.48145;960.2728;;;;
2019/04/11 18:05:24;;;;;;;40.2;29.7;;;;;;;9.49;54.01563;960.2813;;;;
2019/04/11 18:07:49;;;;;;;38;29.3;;;;;;;9.43;54.79883;960.339;;;;
2019/04/11 18:10:15;;;;;;;38.8;30.3;;;;;;;9.35;54.78906;960.3931;;;;
2019/04/11 18:12:40;;;;;;;37.6;29.8;;;;;;;9.38;54.90918;960.4769;;;;
2019/04/11 18:15:05;;;;;;;39.8;29.9;;;;;;;9.3;54.83008;960.4877;;;;
2019/04/11 18:17:30;;;;;;;38.3;29.7;;;;;;;9.23;55.22266;960.5064;;;;
2019/04/11 18:19:55;;;;;;;40.5;30.2;;;;;;;9.2;54.71387;960.5609;;;;
2019/04/11 18:22:20;;;;;;;40.6;30.5;;;;;;;9.1;54.62012;960.5648;;;;
2019/04/11 18:24:45;;;;;;;39.6;29.8;;;;;;;9.09;54.05566;960.622;;;;
2019/04/11 18:27:10;;;;;;;37.2;28.9;;;;;;;8.85;54.56543;960.6409;;;;
2019/04/11 18:29:35;;;;;;;40.2;30.3;;;;;;;8.75;55.0459;960.6789;;;;
2019/04/11 18:32:00;;;;;;;41.5;29.6;;;;;;;8.74;55.125;960.7753;;;;
2019/04/11 18:34:25;;;;;;;35.9;28.5;;;;;;;8.71;54.55957;960.851;;;;
2019/04/11 18:36:50;;;;;;;36.7;28.5;;;;;;;8.62;55.02832;960.8889;;;;
2019/04/11 18:39:17;;;;;;;39.5;28.3;;;;;;;8.65;54.60938;960.8817;;;;
2019/04/11 18:41:42;;;;;;;35.8;27.9;;;;;;;8.79;54.06543;960.9573;;;;
2019/04/11 18:44:07;;;;;;;35.5;28.3;;;;;;;8.74;54.3457;960.9395;;;;
2019/04/11 18:46:32;;;;;;;35.4;28;;;;;;;8.67;55.09277;961.0103;;;;
2019/04/11 18:48:58;;;;;;;34.2;28.1;;;;;;;8.59;56.9375;960.9822;;;;
2019/04/11 18:51:23;;;;;;;34.5;26.6;;;;;;;8.67;56.26172;961.0316;;;;
2019/04/11 18:53:48;;;;;;;39.3;29.8;;;;;;;8.45;55.90137;961.0707;;;;
2019/04/11 18:56:13;;;;;;;39.4;28.6;;;;;;;8.47;55.45703;961.0991;;;;
2019/04/11 18:58:38;;;;;;;39.5;28.2;;;;;;;8.51;55.76074;961.0742;;;;
2019/04/11 19:01:04;;;;;;;37;28.9;;;;;;;8.46;56.1875;961.1692;;;;
2019/04/11 19:03:29;;;;;;;35.4;28.1;;;;;;;8.45;56.83984;961.1138;;;;
2019/04/11 19:05:54;;;;;;;36.7;28.3;;;;;;;8.35;55.76172;961.1772;;;;
2019/04/11 19:08:19;;;;;;;35.4;27.1;;;;;;;8.31;55.97266;961.2195;;;;
2019/04/11 19:10:44;;;;;;;36.3;28;;;;;;;8.28;55.47852;961.2171;;;;
2019/04/11 19:13:09;;;;;;;36.5;28.9;;;;;;;8.11;56.24609;961.23;;;;
2019/04/11 19:15:34;;;;;;;36.2;27.4;;;;;;;8.07;56.03418;961.2504;;;;
2019/04/11 19:17:59;;;;;;;37.6;27.7;;;;;;;8.07;56.01172;961.2805;;;;
2019/04/11 19:20:25;;;;;;;34;27.1;;;;;;;7.96;56.375;961.2367;;;;
2019/04/11 19:22:50;;;;;;;34.7;27.9;;;;;;;7.96;56.4541;961.2155;;;;
2019/04/11 19:25:15;;;;;;;36.9;29.1;;;;;;;7.92;56.72461;961.2051;;;;
2019/04/11 19:27:40;;;;;;;37.6;28.8;;;;;;;7.84;56.88574;961.1939;;;;
2019/04/11 19:30:07;;;;;;;35.7;28.2;;;;;;;7.76;56.84082;961.2861;;;;
2019/04/11 19:32:32;;;;;;;35.6;27.8;;;;;;;7.88;56.98145;961.247;;;;
2019/04/11 19:34:58;;;;;;;33.9;26.6;;;;;;;7.91;56.22949;961.1545;;;;
2019/04/11 19:37:23;;;;;;;35.3;27.3;;;;;;;7.84;57.26172;961.2243;;;;
2019/04/11 19:40:04;;;;;;;36.5;27.2;;;;;;;7.82;56.93945;961.2562;;;;
2019/04/11 19:42:29;;;;;;;34.7;27.7;;;;;;;7.75;56.19824;961.1443;;;;
2019/04/11 19:44:54;;;;;;;35.2;27.3;;;;;;;7.62;55.83789;961.154;;;;